createdAt,value
2024-03-09T00:01:16.738Z,5.34
2024-03-09T00:03:43.313Z,5.41
2024-03-09T00:06:09.804Z,5.38
2024-03-09T00:08:36.437Z,5.16
2024-03-09T00:11:03.033Z,5.09
2024-03-09T00:13:29.522Z,5.23
2024-03-09T00:15:59.704Z,5.13
2024-03-09T00:18:36.448Z,5.07
2024-03-09T00:21:08.123Z,5.11
2024-03-09T00:23:35.152Z,5.21
2024-03-09T00:26:01.679Z,5.22
2024-03-09T00:28:30.589Z,5.37
2024-03-09T00:30:57.020Z,5.15
2024-03-09T00:33:26.474Z,5.32
2024-03-09T00:35:53.000Z,5.21
2024-03-09T00:38:20.568Z,5.44
2024-03-09T00:40:46.969Z,5.31
2024-03-09T00:43:13.466Z,5.44
2024-03-09T00:45:39.942Z,5.40
2024-03-09T00:48:06.626Z,5.32
2024-03-09T00:50:33.415Z,5.41
2024-03-09T00:53:00.029Z,5.22
2024-03-09T00:55:27.112Z,5.23
2024-03-09T00:57:53.624Z,5.14
2024-03-09T01:00:20.831Z,5.16
2024-03-09T01:02:48.686Z,5.12
2024-03-09T01:05:15.368Z,5.15
2024-03-09T01:07:41.864Z,4.99
2024-03-09T01:10:09.327Z,5.07
2024-03-09T01:12:36.647Z,5.40
2024-03-09T01:15:04.398Z,5.09
2024-03-09T01:17:31.197Z,5.16
2024-03-09T01:19:57.828Z,5.05
2024-03-09T01:22:24.432Z,5.11
2024-03-09T01:24:50.956Z,5.26
2024-03-09T01:27:17.646Z,5.17
2024-03-09T01:29:44.077Z,5.38
2024-03-09T01:32:11.696Z,5.19
2024-03-09T01:34:38.400Z,5.32
2024-03-09T01:37:04.985Z,5.20
2024-03-09T01:39:31.555Z,5.31
2024-03-09T01:41:58.347Z,5.14
2024-03-09T01:44:24.862Z,5.18
2024-03-09T01:46:52.032Z,5.19
2024-03-09T01:49:19.835Z,5.27
2024-03-09T01:51:47.065Z,5.28
2024-03-09T01:54:14.247Z,5.07
2024-03-09T01:56:41.305Z,5.08
2024-03-09T01:59:07.895Z,5.03
2024-03-09T02:01:36.724Z,5.18
2024-03-09T02:04:03.728Z,5.12
2024-03-09T02:06:30.205Z,4.87
2024-03-09T02:08:57.506Z,5.01
2024-03-09T02:11:24.901Z,5.10
2024-03-09T02:13:52.403Z,5.04
2024-03-09T02:16:18.864Z,4.96
2024-03-09T02:18:45.336Z,5.05
2024-03-09T02:21:13.685Z,5.03
2024-03-09T02:23:40.350Z,5.03
2024-03-09T02:26:07.516Z,5.19
2024-03-09T02:28:34.098Z,5.11
2024-03-09T02:31:00.617Z,5.03
2024-03-09T02:33:27.206Z,5.03
2024-03-09T02:35:56.053Z,5.05
2024-03-09T02:38:24.263Z,4.69
2024-03-09T02:40:50.771Z,4.73
2024-03-09T02:43:17.724Z,4.77
2024-03-09T02:45:44.346Z,4.74
2024-03-09T02:48:10.817Z,4.70
2024-03-09T02:50:37.315Z,4.72
2024-03-09T02:53:04.084Z,4.88
2024-03-09T02:55:30.637Z,4.79
2024-03-09T02:57:57.443Z,4.64
2024-03-09T03:00:24.120Z,4.40
2024-03-09T03:02:50.961Z,4.66
2024-03-09T03:05:17.462Z,4.65
2024-03-09T03:07:43.981Z,4.70
2024-03-09T03:10:10.425Z,4.70
2024-03-09T03:12:37.220Z,4.60
2024-03-09T03:15:05.094Z,4.60
2024-03-09T03:17:31.600Z,4.71
2024-03-09T03:19:58.087Z,4.63
2024-03-09T03:22:24.621Z,4.48
2024-03-09T03:24:51.051Z,4.44
2024-03-09T03:27:17.673Z,4.40
2024-03-09T03:29:44.175Z,4.57
2024-03-09T03:32:10.955Z,4.35
2024-03-09T03:34:37.805Z,4.41
2024-03-09T03:37:04.266Z,4.51
2024-03-09T03:39:30.801Z,4.27
2024-03-09T03:41:57.220Z,4.24
2024-03-09T03:44:23.779Z,4.42
2024-03-09T03:46:50.235Z,4.34
2024-03-09T03:49:16.862Z,4.27
2024-03-09T03:51:43.359Z,4.23
2024-03-09T03:54:09.827Z,4.32
2024-03-09T03:56:36.295Z,4.31
2024-03-09T03:59:02.767Z,4.37
2024-03-09T04:01:29.244Z,4.12
2024-03-09T04:03:55.773Z,4.16
2024-03-09T04:06:22.200Z,4.17
2024-03-09T04:08:48.909Z,4.10
2024-03-09T04:11:15.563Z,3.86
2024-03-09T04:13:42.231Z,4.03
2024-03-09T04:16:08.708Z,4.18
2024-03-09T04:18:37.752Z,4.14
2024-03-09T04:21:04.632Z,4.24
2024-03-09T04:23:31.223Z,4.20
2024-03-09T04:25:57.729Z,4.38
2024-03-09T04:28:24.255Z,4.29
2024-03-09T04:30:51.581Z,4.34
2024-03-09T04:33:21.508Z,3.95
2024-03-09T04:35:48.678Z,4.21
2024-03-09T04:38:16.985Z,3.96
2024-03-09T04:40:44.479Z,4.02
2024-03-09T04:43:11.701Z,4.25
2024-03-09T04:45:38.271Z,4.25
2024-03-09T04:48:05.293Z,4.36
2024-03-09T04:50:34.671Z,4.36
2024-03-09T04:53:01.489Z,4.31
2024-03-09T04:55:30.232Z,4.03
2024-03-09T04:58:00.133Z,3.96
2024-03-09T05:00:28.851Z,4.01
2024-03-09T05:02:55.866Z,3.93
2024-03-09T05:05:23.114Z,4.02
2024-03-09T05:07:51.693Z,4.06
2024-03-09T05:10:19.924Z,4.11
2024-03-09T05:12:53.423Z,4.18
2024-03-09T05:15:21.185Z,4.22
2024-03-09T05:17:47.780Z,4.11
2024-03-09T05:20:14.386Z,3.99
2024-03-09T05:22:41.004Z,4.26
2024-03-09T05:25:08.142Z,4.16
2024-03-09T05:27:34.641Z,4.17
2024-03-09T05:30:01.109Z,4.24
2024-03-09T05:32:27.779Z,4.02
2024-03-09T05:34:54.587Z,4.25
2024-03-09T05:37:21.027Z,4.07
2024-03-09T05:39:50.314Z,4.21
2024-03-09T05:42:16.755Z,4.29
2024-03-09T05:44:43.291Z,4.06
2024-03-09T05:47:09.858Z,4.13
2024-03-09T05:49:36.318Z,3.92
2024-03-09T05:52:02.799Z,3.78
2024-03-09T05:54:29.961Z,3.86
2024-03-09T05:56:56.388Z,3.74
2024-03-09T05:59:22.839Z,3.75
2024-03-09T06:01:49.369Z,3.72
2024-03-09T06:04:15.824Z,3.63
2024-03-09T06:06:42.236Z,3.63
2024-03-09T06:09:08.797Z,3.71
2024-03-09T06:11:35.371Z,3.66
2024-03-09T06:14:01.941Z,3.81
2024-03-09T06:16:31.303Z,3.62
2024-03-09T06:18:57.880Z,3.75
2024-03-09T06:21:24.615Z,3.69
2024-03-09T06:23:51.085Z,3.46
2024-03-09T06:26:17.761Z,3.52
2024-03-09T06:28:44.402Z,3.71
2024-03-09T06:31:12.088Z,3.85
2024-03-09T06:33:38.586Z,3.45
2024-03-09T06:36:05.267Z,3.71
2024-03-09T06:38:32.240Z,3.66
2024-03-09T06:40:58.768Z,3.67
2024-03-09T06:43:25.232Z,3.69
2024-03-09T06:45:52.076Z,3.66
2024-03-09T06:48:18.970Z,3.59
2024-03-09T06:50:46.150Z,3.80
2024-03-09T06:53:12.976Z,3.83
2024-03-09T06:55:39.514Z,3.64
2024-03-09T06:58:06.211Z,3.73
2024-03-09T07:00:34.197Z,3.65
2024-03-09T07:03:00.825Z,3.65
2024-03-09T07:05:31.185Z,3.75
2024-03-09T07:08:01.326Z,3.63
2024-03-09T07:10:29.103Z,3.74
2024-03-09T07:12:56.126Z,3.89
2024-03-09T07:15:22.723Z,4.05
2024-03-09T07:17:51.291Z,3.82
2024-03-09T07:20:19.230Z,3.97
2024-03-09T07:22:47.888Z,4.22
2024-03-09T07:25:14.927Z,4.31
2024-03-09T07:27:42.624Z,4.29
2024-03-09T07:30:12.752Z,4.15
2024-03-09T07:32:40.016Z,4.45
2024-03-09T07:35:11.150Z,4.41
2024-03-09T07:37:37.703Z,4.63
2024-03-09T07:40:04.662Z,4.65
2024-03-09T07:42:31.252Z,4.65
2024-03-09T07:44:58.178Z,4.96
2024-03-09T07:47:24.708Z,4.54
2024-03-09T07:49:51.301Z,4.94
2024-03-09T07:52:18.020Z,4.90
2024-03-09T07:54:44.560Z,5.18
2024-03-09T07:57:11.018Z,5.07
2024-03-09T07:59:37.722Z,5.34
2024-03-09T08:02:04.594Z,5.30
2024-03-09T08:04:31.141Z,5.17
2024-03-09T08:07:00.178Z,5.54
2024-03-09T08:09:27.887Z,5.42
2024-03-09T08:11:54.438Z,5.54
2024-03-09T08:14:20.902Z,5.76
2024-03-09T08:16:47.406Z,5.76
2024-03-09T08:19:13.973Z,5.76
2024-03-09T08:21:40.432Z,5.91
2024-03-09T08:24:07.054Z,5.77
2024-03-09T08:26:34.341Z,5.75
2024-03-09T08:29:00.867Z,5.84
2024-03-09T08:31:27.301Z,5.99
2024-03-09T08:33:53.785Z,6.11
2024-03-09T08:36:20.883Z,6.42
2024-03-09T08:38:53.658Z,6.52
2024-03-09T08:41:20.206Z,6.22
2024-03-09T08:43:46.728Z,6.36
2024-03-09T08:46:13.250Z,6.70
2024-03-09T08:48:39.790Z,6.03
2024-03-09T08:51:06.240Z,6.54
2024-03-09T08:53:32.800Z,6.61
2024-03-09T08:55:59.504Z,6.86
2024-03-09T08:58:25.964Z,6.96
2024-03-09T09:00:52.427Z,7.20
2024-03-09T09:03:19.110Z,6.90
2024-03-09T09:05:45.883Z,6.96
2024-03-09T09:08:12.491Z,6.76
2024-03-09T09:10:38.969Z,7.32
2024-03-09T09:13:07.264Z,7.12
2024-03-09T09:15:33.729Z,7.56
2024-03-09T09:18:00.356Z,7.67
2024-03-09T09:20:26.927Z,7.79
2024-03-09T09:22:53.516Z,7.64
2024-03-09T09:25:19.988Z,7.87
2024-03-09T09:27:46.625Z,7.87
2024-03-09T09:30:13.685Z,8.34
2024-03-09T09:32:40.321Z,8.37
2024-03-09T09:35:07.210Z,8.61
2024-03-09T09:37:33.717Z,8.45
2024-03-09T09:40:00.362Z,8.44
2024-03-09T09:42:30.384Z,8.40
2024-03-09T09:44:57.598Z,8.81
2024-03-09T09:47:25.822Z,9.07
2024-03-09T09:49:54.359Z,9.05
2024-03-09T09:52:22.864Z,9.19
2024-03-09T09:54:49.540Z,9.47
2024-03-09T09:57:16.037Z,9.52
2024-03-09T09:59:42.561Z,9.51
2024-03-09T10:02:09.039Z,9.51
2024-03-09T10:04:36.914Z,9.75
2024-03-09T10:07:08.210Z,10.00
2024-03-09T10:09:37.833Z,9.88
2024-03-09T10:12:05.362Z,9.68
2024-03-09T10:14:33.018Z,9.97
2024-03-09T10:17:07.828Z,10.14
2024-03-09T10:19:35.533Z,10.31
2024-03-09T10:22:02.160Z,10.57
2024-03-09T10:24:28.724Z,10.61
2024-03-09T10:26:55.482Z,10.86
2024-03-09T10:29:21.942Z,11.19
2024-03-09T10:31:49.232Z,10.93
2024-03-09T10:34:15.729Z,10.98
2024-03-09T10:36:43.858Z,11.11
2024-03-09T10:39:12.574Z,11.26
2024-03-09T10:41:41.496Z,11.51
2024-03-09T10:44:08.024Z,11.43
2024-03-09T10:46:41.738Z,11.59
2024-03-09T10:49:10.651Z,11.82
2024-03-09T10:51:46.191Z,11.47
2024-03-09T10:54:19.514Z,11.10
2024-03-09T10:56:48.030Z,11.18
2024-03-09T10:59:15.544Z,10.95
2024-03-09T11:01:43.442Z,10.89
2024-03-09T11:04:10.352Z,11.44
2024-03-09T11:06:37.057Z,11.64
2024-03-09T11:09:04.609Z,11.59
2024-03-09T11:11:32.275Z,11.32
2024-03-09T11:14:02.151Z,11.12
2024-03-09T11:16:30.412Z,11.07
2024-03-09T11:18:57.963Z,11.07
2024-03-09T11:21:32.759Z,10.90
2024-03-09T11:24:02.788Z,11.16
2024-03-09T11:26:32.058Z,11.74
2024-03-09T11:28:58.645Z,11.78
2024-03-09T11:31:25.751Z,12.03
2024-03-09T11:33:57.172Z,12.05
2024-03-09T11:36:44.641Z,12.35
2024-03-09T11:39:15.244Z,12.43
2024-03-09T11:41:47.978Z,12.21
2024-03-09T11:44:23.205Z,12.47
2024-03-09T11:46:51.563Z,13.01
2024-03-09T11:49:18.138Z,13.13
2024-03-09T11:54:14.220Z,13.64
2024-03-09T11:56:41.908Z,13.67
2024-03-09T11:59:09.810Z,14.01
2024-03-09T12:01:36.568Z,13.71
2024-03-09T12:04:06.606Z,13.74
2024-03-09T12:06:33.997Z,13.95
2024-03-09T12:09:00.595Z,14.52
2024-03-09T12:11:30.171Z,14.11
2024-03-09T12:13:58.087Z,14.08
2024-03-09T12:16:26.495Z,14.02
2024-03-09T12:18:54.880Z,14.15
2024-03-09T12:21:23.339Z,14.36
2024-03-09T12:23:50.967Z,14.74
2024-03-09T12:26:17.671Z,14.53
2024-03-09T12:28:45.461Z,14.67
2024-03-09T12:31:12.471Z,15.07
2024-03-09T12:33:40.018Z,15.53
2024-03-09T12:36:09.120Z,15.60
2024-03-09T12:38:36.611Z,15.84
2024-03-09T12:41:04.034Z,15.96
2024-03-09T12:43:30.619Z,16.11
2024-03-09T12:46:01.812Z,15.54
2024-03-09T12:48:30.008Z,16.03
2024-03-09T12:50:56.468Z,15.31
2024-03-09T12:53:24.804Z,15.96
2024-03-09T12:55:51.370Z,15.82
2024-03-09T12:58:18.272Z,15.98
2024-03-09T13:00:45.112Z,16.13
2024-03-09T13:03:11.625Z,15.97
2024-03-09T13:05:38.295Z,16.36
2024-03-09T13:08:05.260Z,16.37
2024-03-09T13:10:31.918Z,16.99
2024-03-09T13:12:59.099Z,17.13
2024-03-09T13:15:25.998Z,16.47
2024-03-09T13:17:54.412Z,16.32
2024-03-09T13:20:21.166Z,16.05
2024-03-09T13:22:48.839Z,16.31
2024-03-09T13:25:16.166Z,16.80
2024-03-09T13:27:42.912Z,17.11
2024-03-09T13:30:11.025Z,16.80
2024-03-09T13:32:37.577Z,17.13
2024-03-09T13:35:04.310Z,16.75
2024-03-09T13:37:30.979Z,16.55
2024-03-09T13:39:57.515Z,16.50
2024-03-09T13:42:24.064Z,16.71
2024-03-09T13:44:51.120Z,16.58
2024-03-09T13:47:17.913Z,16.33
2024-03-09T13:49:44.626Z,16.52
2024-03-09T13:52:11.060Z,17.04
2024-03-09T13:54:37.595Z,16.93
2024-03-09T13:57:04.760Z,17.20
2024-03-09T13:59:31.247Z,17.39
2024-03-09T14:01:57.796Z,16.70
2024-03-09T14:04:25.746Z,17.10
2024-03-09T14:07:03.110Z,17.18
2024-03-09T14:09:35.462Z,16.83
2024-03-09T14:12:02.422Z,15.88
2024-03-09T14:14:29.215Z,15.32
2024-03-09T14:16:55.750Z,15.44
2024-03-09T14:19:24.745Z,16.11
2024-03-09T14:21:51.543Z,15.85
2024-03-09T14:24:18.192Z,14.78
2024-03-09T14:26:44.683Z,14.32
2024-03-09T14:29:11.254Z,14.38
2024-03-09T14:31:37.869Z,14.49
2024-03-09T14:34:04.873Z,14.31
2024-03-09T14:36:31.428Z,14.67
2024-03-09T14:38:58.181Z,14.85
2024-03-09T14:41:26.889Z,14.58
2024-03-09T14:43:54.228Z,15.01
2024-03-09T14:46:20.747Z,14.82
2024-03-09T14:48:48.879Z,14.73
2024-03-09T14:51:17.187Z,14.66
2024-03-09T14:53:43.818Z,14.27
2024-03-09T14:56:10.793Z,14.14
2024-03-09T14:58:38.682Z,13.62
2024-03-09T15:01:05.251Z,13.68
2024-03-09T15:03:31.701Z,14.01
2024-03-09T15:05:58.568Z,13.75
2024-03-09T15:08:25.558Z,13.84
2024-03-09T15:10:52.247Z,13.71
2024-03-09T15:13:18.812Z,13.80
2024-03-09T15:15:45.394Z,13.48
2024-03-09T15:18:12.649Z,13.43
2024-03-09T15:20:39.958Z,13.27
2024-03-09T15:23:06.450Z,13.18
2024-03-09T15:25:32.889Z,13.02
2024-03-09T15:27:59.379Z,12.74
2024-03-09T15:30:26.437Z,13.04
2024-03-09T15:32:53.639Z,12.76
2024-03-09T15:35:20.589Z,12.93
2024-03-09T15:37:48.886Z,12.97
2024-03-09T15:40:15.684Z,12.90
2024-03-09T15:42:42.329Z,12.67
2024-03-09T15:45:09.593Z,12.62
2024-03-09T15:47:36.180Z,12.48
2024-03-09T15:50:02.823Z,12.30
2024-03-09T15:52:29.328Z,12.47
2024-03-09T15:54:55.776Z,12.32
2024-03-09T15:57:22.220Z,12.38
2024-03-09T15:59:48.644Z,12.32
2024-03-09T16:02:15.128Z,12.17
2024-03-09T16:04:41.657Z,12.27
2024-03-09T16:07:08.149Z,12.23
2024-03-09T16:09:34.732Z,12.29
2024-03-09T16:12:01.276Z,12.07
2024-03-09T16:14:27.847Z,12.11
2024-03-09T16:16:54.311Z,12.16
2024-03-09T16:19:20.825Z,12.11
2024-03-09T16:21:47.303Z,11.88
2024-03-09T16:24:13.823Z,11.77
2024-03-09T16:26:40.280Z,11.63
2024-03-09T16:29:06.913Z,11.64
2024-03-09T16:31:36.616Z,11.87
2024-03-09T16:34:04.106Z,11.68
2024-03-09T16:36:30.535Z,11.81
2024-03-09T16:38:57.012Z,11.91
2024-03-09T16:41:24.065Z,11.70
2024-03-09T16:43:50.896Z,11.75
2024-03-09T16:46:17.679Z,11.59
2024-03-09T16:48:44.162Z,11.58
2024-03-09T16:51:11.208Z,11.59
2024-03-09T16:53:38.390Z,11.37
2024-03-09T16:56:05.480Z,11.40
2024-03-09T16:58:32.288Z,11.29
2024-03-09T17:00:58.790Z,11.33
2024-03-09T17:03:25.336Z,11.36
2024-03-09T17:05:51.789Z,11.02
2024-03-09T17:08:18.483Z,11.27
2024-03-09T17:10:45.088Z,11.25
2024-03-09T17:13:11.618Z,11.03
2024-03-09T17:15:38.093Z,11.21
2024-03-09T17:18:04.812Z,11.17
2024-03-09T17:20:31.641Z,11.15
2024-03-09T17:23:01.205Z,11.16
2024-03-09T17:25:27.720Z,11.10
2024-03-09T17:27:54.180Z,11.05
2024-03-09T17:30:20.871Z,11.03
2024-03-09T17:32:49.953Z,10.92
2024-03-09T17:35:18.025Z,10.80
2024-03-09T17:37:44.678Z,10.87
2024-03-09T17:40:11.734Z,10.73
2024-03-09T17:42:38.215Z,10.91
2024-03-09T17:45:04.998Z,10.76
2024-03-09T17:47:31.471Z,10.96
2024-03-09T17:49:58.035Z,11.03
2024-03-09T17:52:24.657Z,10.85
2024-03-09T17:55:02.464Z,10.85
2024-03-09T17:57:31.407Z,10.72
2024-03-09T17:59:57.920Z,10.78
2024-03-09T18:02:24.639Z,10.73
2024-03-09T18:04:51.429Z,10.79
2024-03-09T18:07:18.102Z,10.86
2024-03-09T18:09:44.571Z,10.90
2024-03-09T18:12:19.005Z,10.86
2024-03-09T18:14:45.763Z,10.80
2024-03-09T18:17:12.453Z,10.75
2024-03-09T18:19:40.662Z,10.69
2024-03-09T18:22:07.904Z,10.71
2024-03-09T18:24:37.342Z,10.65
2024-03-09T18:27:12.045Z,10.71
2024-03-09T18:29:39.937Z,10.64
2024-03-09T18:32:06.808Z,10.67
2024-03-09T18:34:33.356Z,10.42
2024-03-09T18:37:00.029Z,10.46
2024-03-09T18:39:26.713Z,10.44
2024-03-09T18:41:53.603Z,10.53
2024-03-09T18:44:20.202Z,10.47
2024-03-09T18:46:46.905Z,10.65
2024-03-09T18:49:13.512Z,10.47
2024-03-09T18:51:40.122Z,10.41
2024-03-09T18:54:06.707Z,10.50
2024-03-09T18:56:33.321Z,10.47
2024-03-09T18:58:59.903Z,10.30
2024-03-09T19:01:26.480Z,10.49
2024-03-09T19:03:53.708Z,10.29
2024-03-09T19:06:27.490Z,10.36
2024-03-09T19:08:57.393Z,10.53
2024-03-09T19:11:24.179Z,10.47
2024-03-09T19:13:50.943Z,10.33
2024-03-09T19:16:23.243Z,10.51
2024-03-09T19:18:50.161Z,10.55
2024-03-09T19:21:16.689Z,10.40
2024-03-09T19:23:43.266Z,10.35
2024-03-09T19:26:09.869Z,10.47
2024-03-09T19:28:36.439Z,10.40
2024-03-09T19:31:02.963Z,10.47
2024-03-09T19:33:29.425Z,10.57
2024-03-09T19:35:55.934Z,10.56
2024-03-09T19:38:22.787Z,10.55
2024-03-09T19:40:49.338Z,10.46
2024-03-09T19:43:15.896Z,10.36
2024-03-09T19:45:42.346Z,10.37
2024-03-09T19:48:08.863Z,10.36
2024-03-09T19:50:35.387Z,10.17
2024-03-09T19:53:01.892Z,10.26
2024-03-09T19:55:28.556Z,10.18
2024-03-09T19:57:55.287Z,10.11
2024-03-09T20:00:23.167Z,9.96
2024-03-09T20:02:51.134Z,10.00
2024-03-09T20:05:21.884Z,9.94
2024-03-09T20:07:49.509Z,9.91
2024-03-09T20:10:16.334Z,9.92
2024-03-09T20:12:47.628Z,9.92
2024-03-09T20:15:16.902Z,9.82
2024-03-09T20:17:50.874Z,9.87
2024-03-09T20:20:18.682Z,9.77
2024-03-09T20:22:45.923Z,9.74
2024-03-09T20:25:13.186Z,9.76
2024-03-09T20:27:47.541Z,9.80
2024-03-09T20:30:14.678Z,9.79
2024-03-09T20:32:45.201Z,9.83
2024-03-09T20:35:15.805Z,9.80
2024-03-09T20:37:43.130Z,9.86
2024-03-09T20:40:12.071Z,9.81
2024-03-09T20:43:03.438Z,9.94
2024-03-09T20:45:30.148Z,9.84
2024-03-09T20:47:57.048Z,9.87
2024-03-09T20:50:23.966Z,9.92
2024-03-09T20:52:51.593Z,9.89
2024-03-09T20:55:21.062Z,9.93
2024-03-09T20:57:48.433Z,9.88
2024-03-09T21:00:15.221Z,9.97
2024-03-09T21:02:41.984Z,9.95
2024-03-09T21:05:09.603Z,9.99
2024-03-09T21:07:39.892Z,9.91
2024-03-09T21:10:09.897Z,9.86
2024-03-09T21:12:37.285Z,9.89
2024-03-09T21:15:04.677Z,9.89
2024-03-09T21:17:33.977Z,9.82
2024-03-09T21:20:00.999Z,9.82
2024-03-09T21:22:27.680Z,9.82
2024-03-09T21:25:02.923Z,9.73
2024-03-09T21:27:35.574Z,9.60
2024-03-09T21:30:08.244Z,9.68
2024-03-09T21:32:38.913Z,9.58
2024-03-09T21:35:06.810Z,9.52
2024-03-09T21:37:33.341Z,9.45
2024-03-09T21:40:02.729Z,9.50
2024-03-09T21:42:29.494Z,9.45
2024-03-09T21:44:56.121Z,9.38
2024-03-09T21:47:22.713Z,9.35
2024-03-09T21:49:49.253Z,9.26
2024-03-09T21:52:18.246Z,9.27
2024-03-09T21:54:44.818Z,9.26
2024-03-09T21:57:13.574Z,9.19
2024-03-09T21:59:40.278Z,9.17
2024-03-09T22:02:08.549Z,9.18
2024-03-09T22:04:36.126Z,9.32
2024-03-09T22:07:05.646Z,9.37
2024-03-09T22:09:32.634Z,9.34
2024-03-09T22:11:59.686Z,9.48
2024-03-09T22:14:28.728Z,9.48
2024-03-09T22:17:21.995Z,9.46
2024-03-09T22:19:51.660Z,9.45
2024-03-09T22:22:18.414Z,9.51
2024-03-09T22:24:45.027Z,9.40
2024-03-09T22:27:12.239Z,9.39
2024-03-09T22:29:39.014Z,9.35
2024-03-09T22:32:09.203Z,9.34
2024-03-09T22:34:36.381Z,9.39
2024-03-09T22:37:03.249Z,9.18
2024-03-09T22:39:30.231Z,9.33
2024-03-09T22:41:58.466Z,9.41
2024-03-09T22:44:25.946Z,9.47
2024-03-09T22:46:56.374Z,9.46
2024-03-09T22:49:23.140Z,9.50
2024-03-09T22:51:53.041Z,9.58
2024-03-09T22:54:22.555Z,9.51
2024-03-09T22:56:49.181Z,9.53
2024-03-09T22:59:15.911Z,9.59
2024-03-09T23:01:42.389Z,9.51
2024-03-09T23:04:08.842Z,9.54
2024-03-09T23:06:35.351Z,9.52
2024-03-09T23:09:01.923Z,9.50
2024-03-09T23:11:28.491Z,9.56
2024-03-09T23:13:55.296Z,9.67
2024-03-09T23:16:21.791Z,9.71
2024-03-09T23:18:48.447Z,9.69
2024-03-09T23:21:14.906Z,9.75
2024-03-09T23:23:41.460Z,9.70
2024-03-09T23:26:08.030Z,9.84
2024-03-09T23:28:34.505Z,9.82
2024-03-09T23:31:00.995Z,9.80
2024-03-09T23:33:29.625Z,9.80
2024-03-09T23:35:56.049Z,9.61
2024-03-09T23:38:22.629Z,9.84
2024-03-09T23:40:49.396Z,9.70
2024-03-09T23:43:16.972Z,9.86
2024-03-09T23:45:43.672Z,9.88
2024-03-09T23:48:13.840Z,9.86
2024-03-09T23:50:41.234Z,9.88
2024-03-09T23:53:08.119Z,9.59
2024-03-09T23:55:34.949Z,9.64
2024-03-09T23:58:01.420Z,9.73
